createdAt,value
2018-10-06T00:00:47.236Z,16.12
2018-10-06T00:03:15.101Z,16.15
2018-10-06T00:05:42.768Z,16.13
2018-10-06T00:08:10.455Z,16.17
2018-10-06T00:10:38.033Z,16.04
2018-10-06T00:13:05.600Z,16.19
2018-10-06T00:15:33.421Z,16.04
2018-10-06T00:18:01.148Z,16.00
2018-10-06T00:20:28.710Z,15.98
2018-10-06T00:22:56.440Z,15.98
2018-10-06T00:25:23.966Z,16.14
2018-10-06T00:27:51.490Z,15.94
2018-10-06T00:30:19.291Z,15.87
2018-10-06T00:32:46.848Z,15.60
2018-10-06T00:35:14.582Z,15.61
2018-10-06T00:37:42.388Z,15.71
2018-10-06T00:40:10.157Z,15.68
2018-10-06T00:42:37.713Z,15.74
2018-10-06T00:45:05.238Z,15.71
2018-10-06T00:47:32.830Z,15.39
2018-10-06T00:50:00.354Z,15.33
2018-10-06T00:52:28.016Z,15.43
2018-10-06T00:54:55.564Z,15.40
2018-10-06T00:57:23.337Z,15.22
2018-10-06T00:59:50.861Z,15.30
2018-10-06T01:02:18.420Z,15.21
2018-10-06T01:04:46.043Z,15.30
2018-10-06T01:07:13.625Z,15.40
2018-10-06T01:09:41.275Z,15.50
2018-10-06T01:12:08.862Z,15.66
2018-10-06T01:14:36.645Z,15.61
2018-10-06T01:17:04.249Z,15.55
2018-10-06T01:19:32.006Z,15.60
2018-10-06T01:21:59.589Z,15.39
2018-10-06T01:24:27.406Z,15.09
2018-10-06T01:26:55.315Z,15.07
2018-10-06T01:29:22.948Z,15.00
2018-10-06T01:31:50.498Z,15.27
2018-10-06T01:34:18.115Z,15.10
2018-10-06T01:36:45.627Z,14.90
2018-10-06T01:39:13.252Z,15.05
2018-10-06T01:41:40.789Z,15.00
2018-10-06T01:44:08.380Z,14.69
2018-10-06T01:46:35.924Z,14.76
2018-10-06T01:49:03.555Z,14.66
2018-10-06T01:51:31.097Z,14.83
2018-10-06T01:53:58.642Z,14.86
2018-10-06T01:56:26.320Z,15.04
2018-10-06T01:58:53.904Z,15.08
2018-10-06T02:01:21.454Z,15.06
2018-10-06T02:03:49.031Z,15.16
2018-10-06T02:06:16.652Z,15.09
2018-10-06T02:08:44.338Z,15.17
2018-10-06T02:11:11.882Z,15.18
2018-10-06T02:13:39.615Z,15.31
2018-10-06T02:16:07.464Z,15.11
2018-10-06T02:18:35.140Z,15.35
2018-10-06T02:21:02.942Z,15.41
2018-10-06T02:23:30.679Z,15.52
2018-10-06T02:25:58.561Z,15.38
2018-10-06T02:28:26.165Z,15.35
2018-10-06T02:30:53.744Z,15.20
2018-10-06T02:33:21.761Z,15.27
2018-10-06T02:35:49.608Z,14.87
2018-10-06T02:38:17.357Z,15.30
2018-10-06T02:40:45.198Z,15.12
2018-10-06T02:43:12.757Z,15.20
2018-10-06T02:45:40.486Z,15.25
2018-10-06T02:48:08.080Z,15.31
2018-10-06T02:50:35.618Z,15.35
2018-10-06T02:53:03.743Z,15.34
2018-10-06T02:55:31.284Z,15.32
2018-10-06T02:57:58.818Z,15.36
2018-10-06T03:00:26.687Z,15.33
2018-10-06T03:02:54.222Z,15.40
2018-10-06T03:05:21.811Z,15.28
2018-10-06T03:07:49.351Z,15.36
2018-10-06T03:10:16.972Z,15.42
2018-10-06T03:12:44.579Z,15.27
2018-10-06T03:15:12.123Z,15.29
2018-10-06T03:17:39.978Z,15.40
2018-10-06T03:20:07.557Z,15.36
2018-10-06T03:22:35.119Z,15.34
2018-10-06T03:25:02.653Z,15.41
2018-10-06T03:27:30.246Z,15.35
2018-10-06T03:29:57.761Z,15.33
2018-10-06T03:32:25.374Z,15.35
2018-10-06T03:34:53.092Z,14.99
2018-10-06T03:37:20.688Z,15.27
2018-10-06T03:39:48.417Z,15.11
2018-10-06T03:42:15.961Z,15.24
2018-10-06T03:44:43.819Z,15.27
2018-10-06T03:47:11.500Z,14.89
2018-10-06T03:49:39.227Z,15.06
2018-10-06T03:52:07.013Z,15.15
2018-10-06T03:54:35.047Z,15.29
2018-10-06T03:57:02.816Z,15.19
2018-10-06T03:59:30.382Z,15.20
2018-10-06T04:01:57.900Z,15.27
2018-10-06T04:04:25.478Z,15.25
2018-10-06T04:06:53.167Z,15.24
2018-10-06T04:09:20.710Z,15.25
2018-10-06T04:11:48.291Z,15.29
2018-10-06T04:14:15.820Z,14.81
2018-10-06T04:16:43.461Z,14.95
2018-10-06T04:19:11.027Z,14.71
2018-10-06T04:21:38.543Z,14.57
2018-10-06T04:24:06.149Z,14.47
2018-10-06T04:26:33.916Z,14.38
2018-10-06T04:29:01.472Z,14.41
2018-10-06T04:31:29.037Z,14.43
2018-10-06T04:33:56.571Z,14.44
2018-10-06T04:36:24.120Z,14.27
2018-10-06T04:38:51.692Z,14.32
2018-10-06T04:41:19.276Z,14.23
2018-10-06T04:43:47.007Z,14.35
2018-10-06T04:46:14.574Z,14.39
2018-10-06T04:48:42.101Z,14.54
2018-10-06T04:51:09.688Z,14.61
2018-10-06T04:53:37.223Z,14.41
2018-10-06T04:56:04.793Z,14.14
2018-10-06T04:58:32.326Z,14.53
2018-10-06T05:00:59.928Z,14.44
2018-10-06T05:03:27.500Z,14.59
2018-10-06T05:05:55.169Z,14.44
2018-10-06T05:08:22.908Z,14.35
2018-10-06T05:10:50.596Z,14.19
2018-10-06T05:13:18.132Z,14.20
2018-10-06T05:15:45.689Z,14.23
2018-10-06T05:18:13.216Z,14.43
2018-10-06T05:20:40.889Z,14.29
2018-10-06T05:23:08.548Z,14.39
2018-10-06T05:25:36.064Z,14.26
2018-10-06T05:28:04.029Z,14.47
2018-10-06T05:30:31.598Z,14.52
2018-10-06T05:32:59.257Z,14.53
2018-10-06T05:35:26.805Z,14.35
2018-10-06T05:37:54.358Z,14.37
2018-10-06T05:40:21.913Z,14.59
2018-10-06T05:42:49.433Z,14.45
2018-10-06T05:45:17.212Z,14.52
2018-10-06T05:47:44.738Z,14.65
2018-10-06T05:50:12.267Z,14.43
2018-10-06T05:52:39.820Z,14.41
2018-10-06T05:55:07.367Z,14.50
2018-10-06T05:57:34.874Z,14.39
2018-10-06T06:00:02.441Z,14.54
2018-10-06T06:02:29.977Z,14.55
2018-10-06T06:04:57.504Z,14.55
2018-10-06T06:07:25.065Z,14.56
2018-10-06T06:09:52.711Z,14.67
2018-10-06T06:12:20.181Z,14.74
2018-10-06T06:14:47.919Z,14.75
2018-10-06T06:17:15.502Z,14.84
2018-10-06T06:19:43.046Z,14.90
2018-10-06T06:22:10.594Z,14.88
2018-10-06T06:24:38.135Z,14.92
2018-10-06T06:27:05.844Z,15.01
2018-10-06T06:29:33.361Z,14.97
2018-10-06T06:32:00.882Z,14.95
2018-10-06T06:34:28.590Z,14.92
2018-10-06T06:36:56.217Z,14.96
2018-10-06T06:39:23.866Z,15.02
2018-10-06T06:41:51.590Z,15.00
2018-10-06T06:44:19.398Z,15.06
2018-10-06T06:46:46.974Z,15.17
2018-10-06T06:49:14.539Z,15.15
2018-10-06T06:51:42.979Z,15.16
2018-10-06T06:54:10.720Z,15.30
2018-10-06T06:56:38.455Z,15.19
2018-10-06T06:59:06.168Z,15.27
2018-10-06T07:01:33.888Z,15.22
2018-10-06T07:04:01.409Z,15.41
2018-10-06T07:06:28.965Z,15.39
2018-10-06T07:08:56.523Z,15.48
2018-10-06T07:11:24.089Z,15.44
2018-10-06T07:13:51.619Z,15.45
2018-10-06T07:16:19.181Z,15.55
2018-10-06T07:18:46.741Z,15.60
2018-10-06T07:21:14.306Z,15.71
2018-10-06T07:23:42.012Z,15.78
2018-10-06T07:26:09.631Z,15.78
2018-10-06T07:28:38.127Z,15.83
2018-10-06T07:31:05.590Z,15.91
2018-10-06T07:33:33.171Z,15.95
2018-10-06T07:36:00.798Z,16.02
2018-10-06T07:38:28.591Z,16.09
2018-10-06T07:40:56.192Z,16.16
2018-10-06T07:43:23.805Z,16.29
2018-10-06T07:45:51.396Z,16.32
2018-10-06T07:48:18.925Z,16.37
2018-10-06T07:50:46.454Z,16.37
2018-10-06T07:53:15.768Z,16.46
2018-10-06T07:55:43.626Z,16.59
2018-10-06T07:58:11.317Z,16.62
2018-10-06T08:00:38.921Z,16.73
2018-10-06T08:03:06.605Z,16.59
2018-10-06T08:05:34.434Z,16.78
2018-10-06T08:08:02.077Z,16.83
2018-10-06T08:10:29.944Z,16.84
2018-10-06T08:12:58.943Z,16.98
2018-10-06T08:15:26.681Z,17.02
2018-10-06T08:17:54.322Z,17.04
2018-10-06T08:20:21.985Z,17.08
2018-10-06T08:22:49.889Z,17.19
2018-10-06T08:25:17.607Z,17.16
2018-10-06T08:27:45.277Z,17.31
2018-10-06T08:30:12.868Z,17.32
2018-10-06T08:32:40.584Z,17.35
2018-10-06T08:35:08.229Z,17.43
2018-10-06T08:37:36.018Z,17.55
2018-10-06T08:40:03.721Z,17.59
2018-10-06T08:42:31.308Z,17.62
2018-10-06T08:44:58.957Z,17.79
2018-10-06T08:47:26.862Z,17.81
2018-10-06T08:58:32.892Z,18.12
2018-10-06T09:01:00.586Z,18.12
2018-10-06T09:03:28.234Z,18.22
2018-10-06T09:05:55.816Z,18.31
2018-10-06T09:08:23.405Z,18.34
2018-10-06T09:10:51.059Z,18.37
2018-10-06T09:13:18.711Z,18.44
2018-10-06T09:15:46.293Z,18.44
2018-10-06T09:18:13.833Z,18.49
2018-10-06T09:20:41.392Z,18.68
2018-10-06T09:23:09.076Z,18.62
2018-10-06T09:25:36.655Z,18.78
2018-10-06T09:28:04.244Z,18.87
2018-10-06T09:30:31.750Z,18.91
2018-10-06T09:32:59.351Z,18.95
2018-10-06T09:35:26.891Z,19.08
2018-10-06T09:43:37.851Z,19.16
2018-10-06T09:46:05.351Z,19.16
2018-10-06T09:48:32.894Z,19.12
2018-10-06T09:51:00.442Z,19.33
2018-10-06T09:53:28.098Z,19.20
2018-10-06T09:55:55.620Z,19.50
2018-10-06T09:58:23.176Z,19.49
2018-10-06T10:00:50.755Z,19.52
2018-10-06T10:03:19.076Z,19.46
2018-10-06T10:05:46.716Z,19.84
2018-10-06T10:08:14.333Z,19.89
2018-10-06T10:10:41.948Z,20.05
2018-10-06T10:13:09.482Z,20.14
2018-10-06T10:15:37.002Z,20.17
2018-10-06T10:18:04.627Z,20.16
2018-10-06T10:20:32.144Z,20.33
2018-10-06T10:22:59.736Z,20.35
2018-10-06T10:25:27.286Z,20.31
2018-10-06T10:27:54.838Z,20.41
2018-10-06T10:30:22.387Z,20.55
2018-10-06T10:32:49.937Z,20.60
2018-10-06T10:35:17.444Z,20.64
2018-10-06T10:37:45.139Z,20.83
2018-10-06T10:40:12.867Z,20.87
2018-10-06T10:42:41.597Z,20.92
2018-10-06T10:53:47.244Z,21.29
2018-10-06T12:19:41.185Z,22.69
2018-10-06T12:22:08.830Z,22.79
2018-10-06T12:24:36.355Z,22.83
2018-10-06T12:27:04.094Z,22.71
2018-10-06T12:29:31.686Z,22.94
2018-10-06T12:31:59.257Z,23.09
2018-10-06T20:00:26.904Z,19.08
2018-10-06T20:02:54.624Z,19.09
2018-10-06T20:05:22.212Z,19.19
2018-10-06T20:07:49.836Z,19.19
2018-10-06T21:27:59.861Z,18.22
2018-10-06T21:30:29.780Z,17.99
2018-10-06T21:32:57.536Z,18.18
2018-10-06T21:35:25.216Z,18.04
